createdAt,value
2019-03-06T00:00:41.177Z,6.33
2019-03-06T00:03:08.424Z,4.53
2019-03-06T00:05:36.063Z,5.83
2019-03-06T00:08:03.478Z,5.97
2019-03-06T00:10:31.374Z,6.40
2019-03-06T00:12:58.743Z,5.60
2019-03-06T00:15:26.028Z,2.77
2019-03-06T00:17:53.238Z,5.00
2019-03-06T00:20:20.775Z,7.43
2019-03-06T00:22:48.059Z,6.20
2019-03-06T00:25:15.358Z,4.77
2019-03-06T00:27:42.660Z,5.13
2019-03-06T00:30:10.082Z,4.80
2019-03-06T00:32:37.360Z,5.83
2019-03-06T00:35:07.281Z,4.33
2019-03-06T00:37:34.524Z,3.90
2019-03-06T00:40:08.496Z,7.67
2019-03-06T00:42:40.362Z,6.67
2019-03-06T00:45:08.167Z,7.33
2019-03-06T00:47:35.442Z,7.50
2019-03-06T00:50:02.902Z,5.53
2019-03-06T00:52:30.167Z,7.63
2019-03-06T00:54:57.446Z,8.23
2019-03-06T00:57:24.709Z,5.97
2019-03-06T00:59:51.988Z,7.33
2019-03-06T01:02:19.257Z,7.27
2019-03-06T01:04:46.502Z,3.43
2019-03-06T01:07:13.809Z,7.93
2019-03-06T01:09:41.074Z,4.30
2019-03-06T01:12:08.731Z,5.80
2019-03-06T01:14:36.002Z,5.50
2019-03-06T01:17:03.295Z,8.80
2019-03-06T01:19:30.589Z,5.17
2019-03-06T01:21:57.838Z,5.33
2019-03-06T01:24:25.088Z,4.27
2019-03-06T01:26:52.564Z,5.17
2019-03-06T01:29:19.901Z,5.97
2019-03-06T01:31:47.451Z,6.73
2019-03-06T01:34:40.010Z,7.20
2019-03-06T01:37:18.219Z,5.33
2019-03-06T01:39:53.892Z,5.63
2019-03-06T01:42:40.583Z,6.53
2019-03-06T01:45:10.158Z,8.90
2019-03-06T01:47:37.380Z,6.67
2019-03-06T01:50:06.740Z,5.57
2019-03-06T01:52:34.030Z,6.40
2019-03-06T01:55:03.753Z,8.93
2019-03-06T01:57:30.980Z,6.50
2019-03-06T01:59:58.258Z,5.93
2019-03-06T02:02:25.661Z,7.00
2019-03-06T02:04:52.919Z,7.37
2019-03-06T02:07:22.505Z,8.00
2019-03-06T02:09:49.801Z,9.13
2019-03-06T02:12:17.058Z,7.83
2019-03-06T02:14:44.310Z,8.10
2019-03-06T02:17:11.690Z,8.00
2019-03-06T02:19:39.074Z,8.20
2019-03-06T02:22:06.458Z,8.30
2019-03-06T02:24:33.730Z,11.83
2019-03-06T02:27:01.028Z,9.17
2019-03-06T02:29:28.320Z,12.03
2019-03-06T02:31:55.604Z,13.03
2019-03-06T02:34:22.832Z,9.90
2019-03-06T02:36:50.081Z,9.57
2019-03-06T02:39:17.359Z,13.53
2019-03-06T02:41:44.603Z,8.97
2019-03-06T02:44:11.839Z,10.80
2019-03-06T02:46:39.111Z,9.97
2019-03-06T02:49:06.345Z,10.57
2019-03-06T02:51:33.824Z,10.63
2019-03-06T02:54:01.076Z,10.70
2019-03-06T02:56:30.682Z,12.27
2019-03-06T02:59:17.501Z,14.40
2019-03-06T03:02:07.321Z,12.80
2019-03-06T03:04:42.739Z,10.83
2019-03-06T03:07:15.795Z,12.43
2019-03-06T03:09:43.048Z,11.60
2019-03-06T03:12:10.320Z,13.37
2019-03-06T03:14:37.567Z,9.83
2019-03-06T03:17:04.862Z,10.40
2019-03-06T03:19:32.100Z,11.90
2019-03-06T03:21:59.309Z,13.40
2019-03-06T03:24:26.926Z,9.90
2019-03-06T03:26:54.227Z,12.10
2019-03-06T03:29:21.484Z,11.60
2019-03-06T03:31:48.763Z,10.60
2019-03-06T03:34:16.005Z,9.30
2019-03-06T03:36:43.226Z,10.07
2019-03-06T03:39:10.495Z,9.30
2019-03-06T03:41:38.768Z,12.60
2019-03-06T03:44:06.015Z,10.00
2019-03-06T03:46:33.275Z,9.43
2019-03-06T03:49:00.536Z,8.83
2019-03-06T03:51:27.779Z,9.43
2019-03-06T03:53:55.166Z,8.77
2019-03-06T03:56:22.426Z,10.73
2019-03-06T03:58:49.664Z,9.70
2019-03-06T04:01:16.972Z,9.70
2019-03-06T04:03:44.310Z,10.17
2019-03-06T04:06:11.604Z,9.57
2019-03-06T04:08:38.895Z,8.77
2019-03-06T04:11:06.142Z,9.67
2019-03-06T04:13:33.364Z,10.43
2019-03-06T04:16:00.664Z,10.73
2019-03-06T04:18:27.910Z,11.17
2019-03-06T04:20:55.203Z,11.07
2019-03-06T04:23:22.451Z,9.90
2019-03-06T04:25:49.691Z,12.83
2019-03-06T04:28:16.986Z,9.87
2019-03-06T04:30:44.358Z,13.23
2019-03-06T04:33:11.603Z,13.17
2019-03-06T04:35:38.899Z,15.87
2019-03-06T04:38:06.142Z,10.67
2019-03-06T04:40:33.407Z,12.47
2019-03-06T04:43:00.683Z,9.97
2019-03-06T04:45:27.919Z,11.83
2019-03-06T04:47:55.168Z,12.37
2019-03-06T04:50:22.460Z,12.03
2019-03-06T04:52:49.694Z,13.70
2019-03-06T04:55:16.988Z,11.87
2019-03-06T04:57:44.230Z,12.47
2019-03-06T05:00:11.696Z,13.60
2019-03-06T05:02:38.972Z,10.97
2019-03-06T05:05:06.517Z,11.37
2019-03-06T05:07:33.772Z,11.63
2019-03-06T05:10:03.639Z,14.97
2019-03-06T05:12:30.862Z,12.10
2019-03-06T05:14:58.180Z,14.70
2019-03-06T05:17:43.733Z,14.20
2019-03-06T05:20:11.111Z,13.47
2019-03-06T05:22:38.381Z,12.23
2019-03-06T05:25:05.767Z,15.57
2019-03-06T05:27:33.029Z,14.97
2019-03-06T05:30:00.580Z,14.27
2019-03-06T05:32:32.192Z,15.13
2019-03-06T05:35:22.588Z,13.10
2019-03-06T05:38:05.499Z,18.53
2019-03-06T05:40:32.800Z,16.17
2019-03-06T05:43:00.049Z,17.13
2019-03-06T05:45:27.288Z,15.17
2019-03-06T05:47:54.562Z,16.90
2019-03-06T05:50:21.834Z,15.47
2019-03-06T05:52:49.089Z,18.43
2019-03-06T05:55:16.335Z,16.53
2019-03-06T05:57:43.612Z,16.90
2019-03-06T06:00:11.603Z,16.67
2019-03-06T06:02:39.083Z,16.47
2019-03-06T06:05:08.881Z,16.70
2019-03-06T06:07:36.151Z,17.77
2019-03-06T06:10:04.202Z,17.53
2019-03-06T06:12:31.433Z,23.07
2019-03-06T06:14:58.696Z,23.93
2019-03-06T06:17:25.948Z,21.57
2019-03-06T06:19:53.253Z,22.60
2019-03-06T06:22:30.752Z,22.33
2019-03-06T06:24:58.015Z,21.33
2019-03-06T06:27:25.251Z,24.63
2019-03-06T06:29:52.534Z,23.80
2019-03-06T06:32:19.783Z,25.23
2019-03-06T06:34:47.033Z,28.90
2019-03-06T06:37:14.294Z,26.67
2019-03-06T06:39:41.544Z,28.77
2019-03-06T06:42:09.123Z,29.40
2019-03-06T06:44:36.355Z,29.37
2019-03-06T06:47:03.614Z,31.90
2019-03-06T06:49:30.925Z,32.40
2019-03-06T06:52:13.988Z,31.60
2019-03-06T06:55:24.834Z,31.23
2019-03-06T06:58:49.258Z,33.93
2019-03-06T07:01:58.390Z,32.40
2019-03-06T07:05:47.811Z,36.27
2019-03-06T07:08:34.591Z,31.63
2019-03-06T07:11:34.907Z,37.40
2019-03-06T07:14:39.846Z,33.03
2019-03-06T07:17:34.083Z,34.00
2019-03-06T07:20:07.874Z,29.60
2019-03-06T07:22:55.728Z,34.80
2019-03-06T07:25:51.608Z,28.70
2019-03-06T07:28:38.403Z,29.47
2019-03-06T07:31:15.416Z,30.83
2019-03-06T07:33:58.593Z,25.03
2019-03-06T07:37:03.698Z,27.30
2019-03-06T07:39:36.466Z,26.37
2019-03-06T07:42:22.298Z,23.90
2019-03-06T07:45:49.063Z,28.77
2019-03-06T07:48:35.839Z,26.83
2019-03-06T07:51:10.490Z,24.57
2019-03-06T07:54:06.521Z,28.13
2019-03-06T07:56:37.339Z,26.00
2019-03-06T07:59:04.748Z,22.40
2019-03-06T08:01:34.764Z,20.70
2019-03-06T08:04:27.573Z,25.17
2019-03-06T08:07:02.014Z,24.77
2019-03-06T08:09:29.494Z,27.33
2019-03-06T08:12:09.612Z,22.40
2019-03-06T08:14:56.448Z,22.97
2019-03-06T08:17:52.485Z,24.43
2019-03-06T08:20:37.687Z,25.37
2019-03-06T08:23:17.473Z,18.00
2019-03-06T08:25:44.290Z,18.43
2019-03-06T08:28:12.377Z,20.23
2019-03-06T08:30:45.482Z,20.47
2019-03-06T08:33:18.154Z,16.97
2019-03-06T08:35:42.040Z,20.57
2019-03-06T08:38:09.392Z,22.40
2019-03-06T08:40:36.703Z,16.77
2019-03-06T08:43:03.944Z,17.60
2019-03-06T08:45:40.209Z,19.67
2019-03-06T08:48:14.897Z,16.47
2019-03-06T08:50:53.735Z,22.57
2019-03-06T08:53:31.993Z,16.77
2019-03-06T08:56:21.689Z,15.37
2019-03-06T08:59:10.114Z,16.13
2019-03-06T09:02:00.543Z,15.70
2019-03-06T09:04:58.540Z,15.97
2019-03-06T09:07:41.380Z,16.37
2019-03-06T09:10:17.360Z,15.10
2019-03-06T09:13:19.159Z,15.27
2019-03-06T09:16:06.292Z,15.70
2019-03-06T09:18:52.895Z,17.87
2019-03-06T09:21:45.451Z,15.40
2019-03-06T09:24:35.018Z,14.87
2019-03-06T09:27:12.848Z,17.47
2019-03-06T09:30:02.738Z,15.10
2019-03-06T09:32:37.293Z,12.93
2019-03-06T09:35:20.421Z,15.73
2019-03-06T09:38:11.196Z,12.30
2019-03-06T09:40:46.310Z,13.93
2019-03-06T09:43:48.305Z,13.63
2019-03-06T09:46:27.501Z,13.30
2019-03-06T09:49:12.535Z,15.47
2019-03-06T09:51:52.256Z,15.23
2019-03-06T09:54:35.323Z,15.73
2019-03-06T09:57:25.043Z,12.67
2019-03-06T10:00:10.351Z,14.63
2019-03-06T10:02:45.741Z,12.87
2019-03-06T10:05:28.046Z,12.60
2019-03-06T10:08:20.760Z,11.30
2019-03-06T10:10:57.782Z,13.57
2019-03-06T10:13:30.898Z,13.20
2019-03-06T10:16:20.706Z,13.07
2019-03-06T10:19:02.962Z,12.23
2019-03-06T10:21:30.264Z,13.70
2019-03-06T10:23:57.514Z,11.67
2019-03-06T10:26:25.086Z,14.67
2019-03-06T10:28:52.396Z,12.07
2019-03-06T10:31:19.790Z,11.53
2019-03-06T10:33:47.160Z,12.60
2019-03-06T10:36:14.428Z,11.90
2019-03-06T10:38:41.719Z,11.13
2019-03-06T10:41:10.491Z,12.80
2019-03-06T10:43:38.992Z,11.77
2019-03-06T10:46:06.485Z,10.53
2019-03-06T10:48:33.722Z,11.60
2019-03-06T10:51:01.013Z,8.93
2019-03-06T10:53:28.449Z,10.53
2019-03-06T10:55:55.716Z,14.00
2019-03-06T10:58:22.954Z,10.80
2019-03-06T11:00:54.203Z,10.97
2019-03-06T11:03:25.449Z,11.57
2019-03-06T11:05:52.899Z,10.47
2019-03-06T11:08:20.793Z,9.97
2019-03-06T11:10:48.171Z,12.73
2019-03-06T11:13:15.554Z,11.03
2019-03-06T11:15:42.907Z,8.03
2019-03-06T11:18:10.696Z,10.13
2019-03-06T11:20:40.612Z,10.17
2019-03-06T11:23:08.193Z,9.83
2019-03-06T11:25:36.553Z,9.70
2019-03-06T11:28:05.921Z,9.77
2019-03-06T11:30:37.026Z,8.70
2019-03-06T11:33:05.934Z,8.17
2019-03-06T11:35:34.194Z,9.37
2019-03-06T11:38:01.512Z,7.57
2019-03-06T11:40:29.326Z,10.00
2019-03-06T11:42:56.595Z,10.57
2019-03-06T11:45:23.903Z,9.90
2019-03-06T11:47:51.295Z,10.00
2019-03-06T11:50:19.346Z,10.37
2019-03-06T11:52:46.839Z,12.53
2019-03-06T11:55:15.206Z,12.10
2019-03-06T11:57:43.627Z,13.03
2019-03-06T12:00:23.907Z,9.20
2019-03-06T12:02:52.356Z,11.93
2019-03-06T12:05:21.543Z,13.63
2019-03-06T12:07:49.098Z,8.97
2019-03-06T12:10:17.957Z,9.07
2019-03-06T12:12:45.747Z,8.67
2019-03-06T12:15:14.533Z,10.23
2019-03-06T12:17:42.005Z,9.43
2019-03-06T12:20:09.485Z,10.63
2019-03-06T12:22:36.732Z,9.77
2019-03-06T12:25:06.201Z,8.27
2019-03-06T12:27:34.039Z,11.47
2019-03-06T12:30:01.357Z,8.53
2019-03-06T12:32:28.684Z,8.60
2019-03-06T12:34:55.936Z,8.73
2019-03-06T12:37:23.335Z,9.13
2019-03-06T12:39:50.619Z,9.40
2019-03-06T12:42:17.864Z,9.77
2019-03-06T12:44:45.141Z,10.47
2019-03-06T12:47:12.696Z,10.17
2019-03-06T12:49:40.034Z,7.90
2019-03-06T12:52:07.303Z,9.20
2019-03-06T12:54:34.679Z,8.33
2019-03-06T12:57:02.071Z,8.63
2019-03-06T12:59:31.175Z,6.83
2019-03-06T13:01:58.733Z,8.93
2019-03-06T13:04:26.038Z,9.93
2019-03-06T13:06:53.271Z,8.23
2019-03-06T13:09:22.591Z,7.80
2019-03-06T13:11:49.943Z,7.17
2019-03-06T13:14:18.670Z,10.00
2019-03-06T13:16:46.047Z,7.50
2019-03-06T13:19:13.368Z,9.47
2019-03-06T13:21:40.608Z,9.10
2019-03-06T13:24:08.044Z,8.33
2019-03-06T13:26:35.351Z,8.00
2019-03-06T13:29:02.905Z,8.03
2019-03-06T13:31:30.305Z,7.40
2019-03-06T13:34:11.211Z,8.57
2019-03-06T13:36:38.539Z,9.53
2019-03-06T13:39:07.277Z,9.13
2019-03-06T13:41:34.579Z,10.47
2019-03-06T13:44:01.851Z,8.83
2019-03-06T13:46:29.295Z,7.83
2019-03-06T13:48:56.585Z,8.70
2019-03-06T13:51:23.812Z,8.63
2019-03-06T13:53:51.069Z,8.33
2019-03-06T13:56:18.353Z,9.30
2019-03-06T13:58:45.643Z,10.43
2019-03-06T14:01:13.589Z,8.93
2019-03-06T14:03:41.171Z,9.70
2019-03-06T14:06:08.563Z,8.97
2019-03-06T14:08:35.841Z,8.43
2019-03-06T14:11:03.584Z,8.90
2019-03-06T14:13:32.936Z,8.13
2019-03-06T14:16:06.779Z,8.27
2019-03-06T14:18:34.659Z,7.57
2019-03-06T14:21:02.188Z,8.47
2019-03-06T14:23:35.042Z,9.93
2019-03-06T14:25:59.372Z,9.10
2019-03-06T14:28:29.788Z,8.20
2019-03-06T14:30:57.237Z,9.30
2019-03-06T14:33:24.706Z,8.73
2019-03-06T14:35:52.463Z,8.80
2019-03-06T14:38:22.158Z,8.93
2019-03-06T14:40:52.579Z,9.20
2019-03-06T14:43:20.834Z,8.40
2019-03-06T14:45:49.851Z,9.47
2019-03-06T14:48:17.636Z,11.10
2019-03-06T14:50:45.107Z,10.17
2019-03-06T14:53:12.531Z,8.40
2019-03-06T14:55:40.665Z,8.17
2019-03-06T14:58:08.193Z,9.83
2019-03-06T15:00:35.448Z,9.17
2019-03-06T15:03:02.832Z,9.63
2019-03-06T15:05:30.070Z,7.50
2019-03-06T15:07:57.546Z,8.57
2019-03-06T15:10:24.881Z,9.20
2019-03-06T15:12:54.119Z,11.63
2019-03-06T15:15:22.744Z,8.40
2019-03-06T15:17:50.011Z,8.43
2019-03-06T15:20:17.930Z,9.47
2019-03-06T15:22:45.780Z,8.13
2019-03-06T15:25:17.952Z,10.20
2019-03-06T15:27:45.582Z,9.10
2019-03-06T15:30:14.392Z,10.03
2019-03-06T15:32:42.232Z,7.23
2019-03-06T15:35:10.588Z,9.30
2019-03-06T15:37:38.428Z,9.23
2019-03-06T15:40:09.259Z,6.20
2019-03-06T15:42:36.583Z,7.97
2019-03-06T15:45:04.725Z,6.10
2019-03-06T15:47:33.915Z,7.10
2019-03-06T15:50:01.410Z,8.10
2019-03-06T15:52:29.159Z,8.93
2019-03-06T15:54:59.223Z,8.77
2019-03-06T15:57:26.516Z,8.30
2019-03-06T15:59:53.767Z,6.97
2019-03-06T16:02:21.173Z,7.10
2019-03-06T16:04:48.432Z,7.07
2019-03-06T16:07:17.466Z,7.20
2019-03-06T16:09:44.923Z,7.33
2019-03-06T16:12:12.485Z,10.40
2019-03-06T16:14:39.943Z,6.83
2019-03-06T16:17:07.345Z,8.40
2019-03-06T16:19:34.582Z,8.50
2019-03-06T16:22:03.314Z,9.33
2019-03-06T16:24:30.870Z,8.50
2019-03-06T16:26:58.219Z,8.57
2019-03-06T16:29:25.561Z,6.57
2019-03-06T16:31:52.877Z,5.90
2019-03-06T16:34:20.160Z,5.67
2019-03-06T16:36:47.479Z,8.20
2019-03-06T16:39:14.831Z,6.30
2019-03-06T16:41:42.083Z,6.30
2019-03-06T16:44:09.498Z,9.13
2019-03-06T16:46:36.806Z,6.77
2019-03-06T16:49:04.146Z,7.23
2019-03-06T16:51:31.393Z,5.87
2019-03-06T16:53:58.804Z,5.87
2019-03-06T16:56:26.344Z,5.43
2019-03-06T16:58:55.677Z,7.47
2019-03-06T17:01:24.255Z,8.93
2019-03-06T17:03:51.527Z,7.40
2019-03-06T17:06:22.342Z,8.93
2019-03-06T17:08:49.665Z,6.40
2019-03-06T17:11:17.120Z,4.57
2019-03-06T17:13:44.502Z,5.47
2019-03-06T17:16:11.856Z,5.43
2019-03-06T17:18:39.101Z,9.10
2019-03-06T17:21:06.594Z,6.43
2019-03-06T17:23:33.973Z,5.03
2019-03-06T17:26:01.236Z,5.80
2019-03-06T17:28:28.889Z,6.57
2019-03-06T17:30:56.587Z,10.77
2019-03-06T17:33:23.878Z,6.90
2019-03-06T17:35:52.252Z,7.10
2019-03-06T17:38:20.583Z,4.33
2019-03-06T17:40:47.932Z,8.60
2019-03-06T17:43:15.416Z,8.37
2019-03-06T17:45:44.791Z,6.40
2019-03-06T17:48:12.179Z,4.90
2019-03-06T17:50:39.544Z,9.00
2019-03-06T17:53:06.922Z,6.80
2019-03-06T17:55:34.387Z,8.67
2019-03-06T17:58:01.743Z,6.27
2019-03-06T18:00:37.628Z,5.03
2019-03-06T18:03:05.026Z,6.90
2019-03-06T18:05:32.419Z,8.13
2019-03-06T18:07:59.708Z,6.07
2019-03-06T18:10:26.986Z,6.97
2019-03-06T18:12:54.336Z,6.80
2019-03-06T18:15:21.711Z,7.07
2019-03-06T18:17:48.965Z,7.33
2019-03-06T18:20:16.518Z,6.83
2019-03-06T18:22:44.097Z,7.70
2019-03-06T18:25:13.383Z,7.37
2019-03-06T18:27:40.622Z,5.97
2019-03-06T18:30:09.900Z,6.30
2019-03-06T18:32:37.215Z,6.50
2019-03-06T18:35:04.714Z,6.33
2019-03-06T18:37:31.987Z,7.00
2019-03-06T18:39:59.584Z,6.87
2019-03-06T18:42:26.837Z,7.87
2019-03-06T18:44:54.117Z,5.07
2019-03-06T18:47:21.525Z,8.83
2019-03-06T18:49:48.873Z,6.63
2019-03-06T18:52:16.112Z,6.20
2019-03-06T18:54:43.480Z,7.70
2019-03-06T18:57:13.392Z,6.33
2019-03-06T18:59:40.802Z,7.60
2019-03-06T19:02:08.066Z,11.43
2019-03-06T19:04:35.333Z,6.77
2019-03-06T19:07:02.612Z,8.30
2019-03-06T19:09:29.910Z,7.97
2019-03-06T19:11:57.182Z,7.13
2019-03-06T19:14:24.418Z,9.73
2019-03-06T19:16:51.708Z,9.33
2019-03-06T19:19:18.999Z,8.23
2019-03-06T19:21:46.362Z,6.97
2019-03-06T19:24:13.620Z,9.37
2019-03-06T19:26:40.982Z,7.20
2019-03-06T19:29:08.374Z,7.50
2019-03-06T19:31:35.635Z,10.43
2019-03-06T19:34:03.021Z,11.63
2019-03-06T19:36:30.306Z,8.87
2019-03-06T19:38:57.547Z,9.80
2019-03-06T19:41:24.882Z,8.77
2019-03-06T19:43:52.716Z,8.97
2019-03-06T19:46:19.991Z,9.93
2019-03-06T19:48:47.279Z,10.50
2019-03-06T19:51:14.570Z,8.47
2019-03-06T19:53:41.829Z,11.10
2019-03-06T19:56:09.121Z,8.53
2019-03-06T19:58:36.362Z,9.70
2019-03-06T20:01:05.722Z,10.17
2019-03-06T20:03:32.968Z,11.53
2019-03-06T20:06:00.344Z,11.00
2019-03-06T20:08:27.624Z,8.13
2019-03-06T20:10:57.048Z,10.33
2019-03-06T20:13:24.373Z,12.13
2019-03-06T20:15:51.635Z,11.23
2019-03-06T20:18:19.195Z,13.83
2019-03-06T20:20:46.555Z,13.27
2019-03-06T20:23:13.829Z,13.93
2019-03-06T20:25:41.184Z,8.50
2019-03-06T20:28:08.453Z,10.80
2019-03-06T20:30:35.903Z,10.67
2019-03-06T20:33:03.530Z,12.07
2019-03-06T20:35:30.909Z,12.47
2019-03-06T20:37:58.566Z,12.47
2019-03-06T20:40:25.816Z,13.50
2019-03-06T20:42:53.095Z,10.30
2019-03-06T20:45:20.542Z,14.07
2019-03-06T20:47:47.896Z,16.27
2019-03-06T20:50:15.395Z,12.87
2019-03-06T20:52:42.931Z,14.63
2019-03-06T20:55:10.729Z,16.07
2019-03-06T20:57:38.382Z,12.50
2019-03-06T21:00:06.762Z,12.13
2019-03-06T21:02:33.990Z,12.27
2019-03-06T21:05:02.088Z,12.60
2019-03-06T21:07:29.371Z,12.10
2019-03-06T21:09:56.690Z,11.37
2019-03-06T21:12:23.919Z,12.50
2019-03-06T21:14:51.159Z,13.83
2019-03-06T21:17:18.411Z,13.13
2019-03-06T21:19:45.966Z,13.10
2019-03-06T21:22:13.258Z,12.17
2019-03-06T21:24:40.513Z,13.10
2019-03-06T21:27:07.775Z,13.30
2019-03-06T21:29:35.123Z,12.37
2019-03-06T21:32:02.362Z,13.23
2019-03-06T21:34:29.660Z,14.67
2019-03-06T21:36:56.911Z,15.50
2019-03-06T21:39:24.819Z,12.73
2019-03-06T21:41:52.212Z,12.03
2019-03-06T21:44:19.501Z,13.07
2019-03-06T21:46:46.754Z,14.73
2019-03-06T21:49:14.091Z,12.17
2019-03-06T21:51:41.324Z,14.17
2019-03-06T21:54:08.849Z,11.10
2019-03-06T21:56:36.385Z,13.63
2019-03-06T21:59:03.802Z,12.60
2019-03-06T22:01:31.118Z,14.50
2019-03-06T22:03:58.387Z,17.00
2019-03-06T22:06:25.851Z,13.73
2019-03-06T22:08:53.130Z,13.30
2019-03-06T22:11:20.363Z,18.30
2019-03-06T22:13:47.866Z,11.90
2019-03-06T22:16:15.164Z,13.47
2019-03-06T22:18:42.437Z,13.30
2019-03-06T22:21:09.699Z,13.27
2019-03-06T22:23:36.980Z,12.37
2019-03-06T22:26:04.283Z,12.20
2019-03-06T22:28:31.614Z,11.50
2019-03-06T22:30:59.221Z,11.67
2019-03-06T22:33:26.473Z,12.80
2019-03-06T22:35:53.758Z,13.93
2019-03-06T22:38:21.019Z,13.57
2019-03-06T22:40:48.321Z,13.07
2019-03-06T22:43:15.621Z,12.33
2019-03-06T22:45:42.890Z,10.80
2019-03-06T22:48:12.232Z,11.67
2019-03-06T22:50:39.587Z,13.03
2019-03-06T22:53:06.831Z,13.37
2019-03-06T22:55:34.132Z,12.73
2019-03-06T22:58:02.719Z,13.10
2019-03-06T23:00:57.454Z,15.67
2019-03-06T23:03:26.727Z,13.57
2019-03-06T23:05:54.242Z,11.03
2019-03-06T23:08:21.583Z,12.43
2019-03-06T23:10:48.868Z,13.20
2019-03-06T23:13:18.715Z,12.70
2019-03-06T23:15:46.024Z,15.47
2019-03-06T23:18:13.291Z,13.07
2019-03-06T23:20:40.548Z,10.77
2019-03-06T23:23:07.783Z,14.30
2019-03-06T23:25:36.025Z,13.43
2019-03-06T23:28:03.384Z,12.73
2019-03-06T23:30:30.805Z,9.63
2019-03-06T23:32:58.084Z,12.30
2019-03-06T23:35:25.356Z,10.93
2019-03-06T23:37:52.589Z,9.13
2019-03-06T23:40:19.882Z,11.07
2019-03-06T23:42:48.102Z,13.03
2019-03-06T23:45:15.557Z,10.30
2019-03-06T23:47:42.843Z,12.10
2019-03-06T23:50:10.329Z,10.97
2019-03-06T23:52:57.201Z,14.50
2019-03-06T23:55:25.238Z,12.87
2019-03-06T23:57:52.682Z,11.40
